Time;durP1;ratioP1;P1;durP2;ratioP2;P2;SDS_P1;SDS_P2;PMS_P1;PMS_P2;Temp;Humidity;BMP_temperature;BMP_pressure;BME280_temperature;BME280_humidity;BME280_pressure;Samples;Min_cycle;Max_cycle;Signal;HPM_P1;HPM_P2
2023/06/12 00:01:23;;;;;;;0.30;0.30;;;23.10;59.90;;;23.62;42.35;95017.78;5012068;28;20224;-41
2023/06/12 00:03:50;;;;;;;0.32;0.32;;;23.10;59.90;;;23.61;42.43;95016.16;5011799;28;20200;-41
2023/06/12 00:06:17;;;;;;;0.38;0.38;;;23.10;60.00;;;23.58;42.58;95008.69;5011625;28;20197;-43
2023/06/12 00:08:45;;;;;;;0.40;0.40;;;23.10;60.00;;;23.56;42.09;95004.66;5011210;28;20281;-42
2023/06/12 00:11:12;;;;;;;0.40;0.40;;;23.00;59.90;;;23.55;42.36;95006.53;5012319;28;20286;-43
2023/06/12 00:13:43;;;;;;;0.30;0.30;;;23.00;59.90;;;23.53;42.45;95010.56;5015836;28;20198;-41
2023/06/12 00:16:10;;;;;;;0.40;0.40;;;23.00;60.00;;;23.52;42.47;95015.09;5015126;28;20209;-40
2023/06/12 00:18:39;;;;;;;0.40;0.40;;;23.00;60.00;;;23.49;42.32;95013.78;5015083;28;20197;-41
2023/06/12 00:21:09;;;;;;;0.30;0.30;;;23.00;59.90;;;23.47;42.52;95015.94;5014895;28;20232;-41
2023/06/12 00:23:39;;;;;;;0.40;0.40;;;23.00;60.00;;;23.46;42.55;95011.66;5014908;28;20240;-42
2023/06/12 00:26:06;;;;;;;0.30;0.30;;;22.90;59.80;;;23.44;42.28;95004.97;5014122;28;20212;-40
2023/06/12 00:28:33;;;;;;;0.28;0.28;;;22.90;59.90;;;23.43;42.35;95006.84;5014920;28;20691;-40
2023/06/12 00:31:00;;;;;;;0.40;0.40;;;22.90;60.00;;;23.40;42.40;95004.72;5014836;28;20729;-40
2023/06/12 00:33:27;;;;;;;0.40;0.40;;;22.90;60.00;;;23.39;42.38;95003.09;5013948;28;20272;-40
2023/06/12 00:35:55;;;;;;;0.30;0.30;;;22.90;60.00;;;23.37;42.49;95007.13;5013905;28;20205;-43
2023/06/12 00:38:23;;;;;;;0.30;0.30;;;22.90;60.00;;;23.36;42.31;95005.50;5013861;28;20300;-40
2023/06/12 00:40:50;;;;;;;0.40;0.40;;;22.90;60.00;;;23.32;42.54;94995.34;5014615;28;20187;-42
2023/06/12 00:43:17;;;;;;;0.30;0.30;;;22.80;60.00;;;23.32;42.47;94999.91;5015282;28;20227;-41
2023/06/12 00:45:45;;;;;;;0.30;0.30;;;22.80;60.00;;;23.30;42.56;94991.34;5014912;28;20212;-41
2023/06/12 00:48:12;;;;;;;0.40;0.40;;;22.80;60.00;;;23.28;42.76;94996.97;5013712;28;20654;-41
2023/06/12 00:50:41;;;;;;;0.30;0.30;;;22.80;60.90;;;23.26;42.57;94996.41;5014730;28;20620;-42
2023/06/12 00:53:08;;;;;;;0.30;0.30;;;22.80;60.00;;;23.25;42.58;94994.81;5014591;28;20194;-42
2023/06/12 00:55:36;;;;;;;0.38;0.38;;;22.80;60.00;;;23.24;42.34;94987.06;5030047;28;20201;-42
2023/06/12 00:58:03;;;;;;;0.40;0.40;;;22.70;59.90;;;23.22;42.54;94986.53;5015247;28;20266;-43
2023/06/12 01:00:31;;;;;;;0.30;0.30;;;22.70;59.90;;;23.19;42.41;94987.88;4997139;28;20232;-42
2023/06/12 01:03:06;;;;;;;0.30;0.30;;;22.70;59.90;;;23.16;42.67;94983.03;5014357;28;20315;-42
2023/06/12 01:05:42;;;;;;;0.40;0.40;;;22.70;60.00;;;23.15;42.75;94984.91;5014341;28;20631;-40
2023/06/12 01:08:29;;;;;;;0.30;0.30;;;22.70;60.00;;;23.10;42.73;94992.94;5013463;28;20280;-41
2023/06/12 01:11:08;;;;;;;0.30;0.30;;;22.70;60.00;;;23.09;42.76;94990.53;5013176;28;20188;-41
2023/06/12 01:13:36;;;;;;;0.30;0.30;;;22.70;60.00;;;23.07;42.84;94987.31;4981218;28;20204;-42
2023/06/12 01:16:04;;;;;;;0.40;0.40;;;22.60;60.00;;;23.05;42.67;94974.22;5013296;28;20212;-41
2023/06/12 01:18:32;;;;;;;0.40;0.40;;;22.60;59.90;;;23.06;42.43;94985.72;5014456;28;20596;-41
2023/06/12 01:21:13;;;;;;;0.40;0.40;;;22.60;60.00;;;23.02;42.65;94986.25;5013029;28;20204;-42
2023/06/12 01:24:16;;;;;;;0.40;0.40;;;22.60;60.00;;;22.99;42.94;94976.09;5013508;28;20682;-42
2023/06/12 01:27:03;;;;;;;0.60;0.60;;;22.60;60.00;;;22.95;42.50;94975.03;5029567;28;20275;-41
2023/06/12 01:30:01;;;;;;;0.40;0.40;;;22.60;60.00;;;22.93;42.91;94977.16;5013124;28;20197;-41
2023/06/12 01:32:31;;;;;;;0.40;0.40;;;22.50;60.00;;;22.92;42.85;94977.44;5029632;28;20212;-42
2023/06/12 01:35:05;;;;;;;0.40;0.40;;;22.50;60.00;;;22.91;42.76;94973.97;5013361;28;20568;-42
2023/06/12 01:37:45;;;;;;;0.30;0.30;;;22.50;60.00;;;22.89;42.78;94969.94;5013002;28;20214;-44
2023/06/12 01:40:22;;;;;;;0.30;0.30;;;22.50;60.10;;;22.86;42.61;94969.44;5029155;28;20199;-41
2023/06/12 01:42:52;;;;;;;0.40;0.40;;;22.50;60.10;;;22.85;42.66;94975.84;5012850;28;20295;-41
2023/06/12 01:45:19;;;;;;;0.40;0.40;;;22.50;60.10;;;22.84;42.75;94971.56;5012838;28;20629;-41
2023/06/12 01:47:46;;;;;;;0.40;0.40;;;22.50;60.00;;;22.82;42.80;94967.56;5029299;28;20701;-45
2023/06/12 01:50:17;;;;;;;0.43;0.43;;;22.40;60.00;;;22.82;42.80;94970.22;5014112;28;20599;-41
2023/06/12 01:52:45;;;;;;;0.30;0.30;;;22.40;60.00;;;22.82;42.99;94972.91;5013875;28;20219;-42
2023/06/12 01:55:14;;;;;;;0.40;0.40;;;22.40;60.10;;;22.80;42.60;94959.81;5029108;28;20204;-46
2023/06/12 01:57:42;;;;;;;0.40;0.40;;;22.40;60.10;;;22.79;42.73;94962.72;5013607;28;20207;-42
2023/06/12 02:00:12;;;;;;;0.40;0.40;;;22.30;60.00;;;22.78;42.92;94963.81;5029968;28;20570;-41
2023/06/12 02:02:56;;;;;;;0.40;0.40;;;22.40;60.10;;;22.75;42.99;94962.44;5013377;28;20566;-45
2023/06/12 02:05:28;;;;;;;0.40;0.40;;;22.40;60.10;;;22.75;42.92;94967.81;5012901;28;20207;-41
2023/06/12 02:07:55;;;;;;;0.30;0.30;;;22.30;60.00;;;22.71;43.02;94959.50;5013696;28;20217;-41
2023/06/12 02:10:22;;;;;;;0.40;0.40;;;22.30;60.10;;;22.72;42.84;94971.03;5028855;28;20210;-42
2023/06/12 02:12:50;;;;;;;0.40;0.40;;;22.30;60.10;;;22.70;42.74;94973.16;5028850;28;20722;-42
2023/06/12 02:15:19;;;;;;;0.30;0.30;;;22.30;60.20;;;22.69;43.08;94966.19;5012650;28;20230;-43
2023/06/12 02:17:46;;;;;;;0.38;0.38;;;22.30;60.10;;;22.68;43.17;94967.28;5028787;28;20201;-42
2023/06/12 02:20:14;;;;;;;0.40;0.40;;;22.30;60.20;;;22.67;42.90;94969.16;5012313;28;20269;-41
2023/06/12 02:22:41;;;;;;;0.40;0.40;;;22.30;60.10;;;22.66;43.17;94970.22;5012932;28;20251;-41
2023/06/12 02:25:09;;;;;;;0.40;0.40;;;22.30;60.10;;;22.64;42.79;94969.69;5028636;28;20203;-41
2023/06/12 02:27:36;;;;;;;0.50;0.50;;;22.20;60.10;;;22.63;42.73;94975.28;5028631;28;20238;-41
2023/06/12 02:30:04;;;;;;;0.30;0.30;;;22.20;60.10;;;22.61;43.08;94974.78;5012163;28;20258;-42
2023/06/12 02:32:35;;;;;;;0.50;0.50;;;22.20;60.20;;;22.60;43.02;94978.50;5012011;28;20713;-42
2023/06/12 02:35:02;;;;;;;0.40;0.40;;;22.20;60.20;;;22.58;43.18;94970.72;5011186;28;20215;-42
2023/06/12 02:37:31;;;;;;;0.40;0.40;;;22.20;60.20;;;22.56;43.10;94978.25;5012028;28;20262;-43
2023/06/12 02:39:59;;;;;;;0.38;0.38;;;22.20;60.10;;;22.54;43.22;94978.50;5012004;28;20653;-42
2023/06/12 02:42:26;;;;;;;0.40;0.40;;;22.20;60.10;;;22.53;42.99;94979.56;5011761;28;20258;-43
2023/06/12 02:44:53;;;;;;;0.40;0.40;;;22.20;60.10;;;22.52;42.88;94975.28;5028412;28;20204;-42
2023/06/12 02:47:22;;;;;;;0.50;0.50;;;22.20;60.20;;;22.50;43.13;94968.63;5028414;28;20667;-45
2023/06/12 02:49:49;;;;;;;0.47;0.47;;;22.20;60.10;;;22.49;43.16;94972.34;5013081;28;20194;-42
2023/06/12 02:52:22;;;;;;;0.40;0.40;;;22.20;60.20;;;22.47;43.05;94977.16;5011728;28;20256;-43
2023/06/12 02:54:49;;;;;;;0.40;0.40;;;22.20;60.20;;;22.45;43.17;94974.75;5012335;28;20503;-40
2023/06/12 02:57:16;;;;;;;0.40;0.40;;;22.20;60.20;;;22.44;43.11;94981.16;5011764;28;20207;-40
2023/06/12 02:59:43;;;;;;;0.40;0.40;;;22.10;60.10;;;22.43;43.36;94979.53;5011741;28;20658;-41
2023/06/12 03:02:19;;;;;;;0.30;0.30;;;22.10;60.10;;;22.41;43.18;94983.56;5011603;28;20320;-41
2023/06/12 03:04:49;;;;;;;0.38;0.38;;;22.10;60.20;;;22.39;43.38;94986.50;5012818;28;20215;-40
2023/06/12 03:07:20;;;;;;;0.50;0.50;;;22.10;60.20;;;22.39;43.30;94994.50;5011948;28;20205;-42
2023/06/12 03:09:47;;;;;;;0.40;0.40;;;22.10;60.20;;;22.38;43.46;94996.38;5013106;28;20634;-40
2023/06/12 03:12:14;;;;;;;0.40;0.40;;;22.10;60.20;;;22.37;43.23;94994.75;5011398;28;20253;-41
2023/06/12 03:14:42;;;;;;;0.30;0.30;;;22.10;60.20;;;22.37;43.14;94992.09;5097589;28;20276;-41
2023/06/12 03:17:10;;;;;;;0.40;0.40;;;22.10;60.30;;;22.36;43.48;94995.81;5011516;28;20271;-41
2023/06/12 03:19:37;;;;;;;0.30;0.30;;;22.00;60.20;;;22.35;43.40;94993.38;5011769;28;20521;-44
2023/06/12 03:22:05;;;;;;;0.40;0.40;;;22.00;60.20;;;22.33;43.34;94993.66;5012070;28;20256;-41
2023/06/12 03:24:32;;;;;;;0.40;0.40;;;22.00;60.30;;;22.32;43.16;94993.94;5012382;28;20203;-41
2023/06/12 03:26:59;;;;;;;0.50;0.50;;;22.00;60.20;;;22.31;43.04;94995.78;5012457;28;20220;-40
2023/06/12 03:29:29;;;;;;;0.40;0.40;;;22.00;60.20;;;22.30;43.31;95001.41;5011351;28;20200;-41
2023/06/12 03:31:56;;;;;;;0.40;0.40;;;22.00;60.20;;;22.29;43.23;94997.13;5011169;28;20201;-41
2023/06/12 03:34:26;;;;;;;0.45;0.45;;;22.00;60.30;;;22.27;43.47;94993.94;4995486;28;20203;-42
2023/06/12 03:36:54;;;;;;;0.40;0.40;;;22.00;60.20;;;22.26;43.31;95000.34;5011378;28;20209;-41
2023/06/12 03:39:25;;;;;;;0.40;0.40;;;22.00;60.30;;;22.23;43.66;94999.00;5027919;28;20197;-41
2023/06/12 03:41:58;;;;;;;0.40;0.40;;;22.00;60.20;;;22.23;43.45;95005.13;5012109;28;20219;-42
2023/06/12 03:44:34;;;;;;;0.40;0.40;;;22.00;60.20;;;22.19;43.35;95006.72;5011766;28;20210;-42
2023/06/12 03:47:03;;;;;;;0.40;0.40;;;22.00;60.20;;;22.19;42.97;95008.59;5030854;28;20209;-41
2023/06/12 03:49:30;;;;;;;0.40;0.40;;;21.90;60.20;;;22.19;43.59;95008.59;5014613;28;20220;-42
2023/06/12 03:51:57;;;;;;;0.40;0.40;;;21.90;60.20;;;22.18;43.75;95017.66;5016173;28;20596;-43
2023/06/12 03:54:25;;;;;;;0.40;0.40;;;21.90;60.20;;;22.16;43.41;95009.91;5014968;28;20264;-43
2023/06/12 03:56:52;;;;;;;0.40;0.40;;;21.90;60.10;;;22.15;43.39;95005.63;4999147;28;20197;-42
2023/06/12 03:59:19;;;;;;;0.40;0.40;;;21.90;60.10;;;22.14;43.40;95008.56;5015675;28;20224;-42
2023/06/12 04:01:48;;;;;;;0.40;0.40;;;21.90;60.20;;;22.15;43.05;95012.84;5030646;28;20208;-41
2023/06/12 04:04:15;;;;;;;0.38;0.38;;;21.90;60.20;;;22.10;43.19;95007.50;5014610;28;20661;-41
2023/06/12 04:06:45;;;;;;;0.55;0.55;;;21.90;60.10;;;22.11;43.19;95011.78;5015417;28;20264;-42
2023/06/12 04:09:14;;;;;;;0.47;0.47;;;21.90;60.10;;;22.10;43.11;95015.53;5014373;28;20297;-41
2023/06/12 04:11:43;;;;;;;0.30;0.30;;;21.90;60.10;;;22.10;43.50;95018.19;5015145;28;20238;-41
2023/06/12 04:14:10;;;;;;;0.40;0.40;;;21.80;60.00;;;22.07;43.18;95017.63;5015662;28;20656;-40
2023/06/12 04:16:37;;;;;;;0.40;0.40;;;21.80;60.00;;;22.06;43.39;95017.91;5030670;28;20227;-40
2023/06/12 04:19:05;;;;;;;0.40;0.40;;;21.80;60.00;;;22.06;43.38;95016.03;5014357;28;20210;-40
2023/06/12 04:21:35;;;;;;;0.40;0.40;;;21.80;60.00;;;22.04;43.61;95015.47;5014027;28;20213;-41
2023/06/12 04:24:05;;;;;;;0.40;0.40;;;21.80;60.00;;;22.04;43.35;95015.47;5100407;28;20275;-40
2023/06/12 04:26:34;;;;;;;0.40;0.40;;;21.80;60.00;;;22.04;43.22;95020.03;5030456;28;20240;-41
2023/06/12 04:29:02;;;;;;;0.47;0.47;;;21.80;60.10;;;22.03;43.60;95018.41;5030507;28;20202;-40
2023/06/12 04:31:30;;;;;;;0.40;0.40;;;21.80;60.10;;;22.00;43.37;95016.28;5030682;28;20212;-41
2023/06/12 04:33:58;;;;;;;0.40;0.40;;;21.80;60.10;;;22.02;43.77;95024.81;5030415;28;20217;-40
2023/06/12 04:36:27;;;;;;;0.40;0.40;;;21.80;60.00;;;22.01;43.44;95025.91;5015072;28;20202;-41
2023/06/12 04:38:56;;;;;;;0.30;0.30;;;21.80;60.10;;;22.00;43.39;95027.75;5013722;28;20214;-41
2023/06/12 04:41:24;;;;;;;0.30;0.30;;;21.80;60.10;;;21.99;43.50;95028.03;5014271;28;20210;-41
2023/06/12 04:43:58;;;;;;;0.40;0.40;;;21.80;60.10;;;21.99;43.40;95031.50;5014927;28;20221;-40
2023/06/12 04:46:28;;;;;;;0.40;0.40;;;21.80;60.10;;;21.97;43.39;95027.47;5030911;28;20198;-41
2023/06/12 04:48:56;;;;;;;0.40;0.40;;;21.80;60.10;;;21.96;43.33;95024.00;5014518;28;20225;-42
2023/06/12 04:51:26;;;;;;;0.40;0.40;;;21.80;60.10;;;21.93;43.69;95026.41;5013919;28;20313;-42
2023/06/12 04:53:55;;;;;;;0.40;0.40;;;21.80;60.10;;;21.95;43.54;95030.41;5015161;28;20248;-41
2023/06/12 04:56:23;;;;;;;0.40;0.40;;;21.70;60.00;;;21.94;43.41;95026.13;5013659;28;20211;-42
2023/06/12 04:58:51;;;;;;;0.40;0.40;;;21.70;60.10;;;21.94;43.54;95036.03;5012846;28;20240;-41
2023/06/12 05:01:21;;;;;;;0.40;0.40;;;21.70;60.10;;;21.94;43.44;95033.34;5029971;28;20310;-41
2023/06/12 05:03:49;;;;;;;0.40;0.40;;;21.70;60.10;;;21.91;43.62;95021.34;5013708;28;20669;-40
2023/06/12 05:06:17;;;;;;;0.45;0.45;;;21.70;60.10;;;21.91;43.41;95029.34;5014400;28;20301;-42
2023/06/12 05:08:46;;;;;;;0.47;0.47;;;21.70;60.10;;;21.90;43.41;95023.19;5013432;28;20201;-43
2023/06/12 05:11:13;;;;;;;0.40;0.40;;;21.70;60.10;;;21.90;43.91;95031.19;5013650;28;20198;-41
2023/06/12 05:13:40;;;;;;;0.30;0.30;;;21.70;60.10;;;21.91;43.71;95032.00;5029849;28;20196;-42
2023/06/12 05:16:08;;;;;;;0.60;0.60;;;21.70;60.10;;;21.90;43.40;95023.19;5013352;28;20200;-41
2023/06/12 05:18:35;;;;;;;0.30;0.30;;;21.70;60.20;;;21.90;43.68;95020.50;5013060;28;20209;-41
2023/06/12 05:21:03;;;;;;;0.40;0.40;;;21.70;60.20;;;21.90;43.72;95025.84;5013244;28;20259;-40
2023/06/12 05:23:31;;;;;;;0.40;0.40;;;21.70;60.20;;;21.90;43.74;95022.41;5029452;28;20337;-41
2023/06/12 05:25:58;;;;;;;0.40;0.40;;;21.70;60.30;;;21.90;43.91;95025.84;5029639;28;20210;-43
2023/06/12 05:28:25;;;;;;;0.40;0.40;;;21.70;60.30;;;21.90;43.56;95019.72;5012976;28;20220;-41
2023/06/12 05:30:53;;;;;;;0.30;0.30;;;21.70;60.30;;;21.91;44.00;95024.00;5014029;28;20214;-40
2023/06/12 05:33:20;;;;;;;0.40;0.40;;;21.70;60.30;;;21.89;43.73;95026.13;5013341;28;20661;-41
2023/06/12 05:35:49;;;;;;;0.40;0.40;;;21.70;60.30;;;21.91;44.13;95027.47;5014216;28;20659;-42
2023/06/12 05:38:17;;;;;;;0.30;0.30;;;21.70;60.40;;;21.90;43.86;95020.50;5012782;28;20211;-41
2023/06/12 05:40:44;;;;;;;0.40;0.40;;;21.70;60.30;;;21.91;43.75;95024.78;5013694;28;20658;-42
2023/06/12 05:43:12;;;;;;;0.40;0.40;;;21.70;60.30;;;21.91;43.99;95029.34;5012850;28;20254;-41
2023/06/12 05:45:40;;;;;;;0.38;0.38;;;21.70;60.40;;;21.91;43.93;95026.69;5013110;28;20217;-44
2023/06/12 05:48:08;;;;;;;0.40;0.40;;;21.70;60.50;;;21.91;43.56;95032.81;5012800;28;20270;-40
2023/06/12 05:50:35;;;;;;;0.40;0.40;;;21.70;60.40;;;21.93;44.01;95039.75;5012838;28;20227;-40
2023/06/12 05:53:08;;;;;;;0.40;0.40;;;21.70;60.50;;;21.91;44.11;95035.47;5012746;28;20557;-40
2023/06/12 05:55:36;;;;;;;0.30;0.30;;;21.70;60.50;;;21.92;43.81;95038.94;5012788;28;20645;-40
2023/06/12 05:58:04;;;;;;;0.40;0.40;;;21.70;60.50;;;21.92;43.91;95033.59;5028999;28;20213;-39
2023/06/12 06:00:33;;;;;;;0.30;0.30;;;21.70;60.60;;;21.94;44.18;95044.03;4997548;28;20213;-40
2023/06/12 06:03:06;;;;;;;0.30;0.30;;;21.80;60.60;;;21.93;43.88;95037.09;5012653;28;20222;-41
2023/06/12 06:05:34;;;;;;;0.40;0.40;;;21.70;60.50;;;21.93;43.90;95042.44;5013434;28;20548;-41
2023/06/12 06:08:08;;;;;;;0.40;0.40;;;21.70;60.50;;;21.92;43.86;95041.59;5028853;28;20549;-42
2023/06/12 06:10:40;;;;;;;0.35;0.35;;;21.80;60.60;;;21.93;44.19;95050.44;5013194;28;20210;-41
2023/06/12 06:13:10;;;;;;;0.40;0.40;;;21.80;60.60;;;21.93;44.42;95056.56;5013412;28;20240;-40
2023/06/12 06:15:38;;;;;;;0.32;0.32;;;21.80;60.60;;;21.93;44.25;95053.91;5012458;28;20199;-41
2023/06/12 06:18:08;;;;;;;0.40;0.40;;;21.70;60.60;;;21.94;44.11;95047.50;5012753;28;20211;-40
2023/06/12 06:20:35;;;;;;;0.40;0.40;;;21.70;60.60;;;21.96;43.97;95052.56;5028759;28;20599;-41
2023/06/12 06:23:04;;;;;;;0.45;0.45;;;21.80;60.70;;;21.97;44.15;95052.34;5012652;28;20334;-44
2023/06/12 06:25:31;;;;;;;0.40;0.40;;;21.70;60.60;;;21.98;43.92;95048.56;5029188;28;20203;-42
2023/06/12 06:27:59;;;;;;;0.38;0.38;;;21.80;60.70;;;22.00;44.49;95051.00;5012116;28;20207;-41
2023/06/12 06:30:26;;;;;;;0.32;0.32;;;21.80;60.70;;;22.01;44.22;95047.28;5028719;28;20660;-39
2023/06/12 06:32:54;;;;;;;0.40;0.40;;;21.80;60.70;;;22.01;43.85;95044.59;4996426;28;20212;-41
2023/06/12 06:35:24;;;;;;;0.30;0.30;;;21.80;60.80;;;22.03;44.30;95045.94;5012225;28;20258;-42
2023/06/12 06:37:51;;;;;;;0.45;0.45;;;21.80;60.70;;;22.03;44.22;95051.28;5012202;28;20268;-42
2023/06/12 06:40:18;;;;;;;0.35;0.35;;;21.80;60.70;;;22.04;44.12;95047.53;5012430;28;20239;-41
2023/06/12 06:47:19;;;;;;;0.50;0.50;;;21.90;60.80;;;21.94;44.00;95038.69;5059468;28;20194;-43
2023/06/12 06:50:09;;;;;;;0.40;0.40;;;21.90;60.80;;;21.97;44.23;95033.63;5097092;28;20227;-42
2023/06/12 06:53:21;;;;;;;0.40;0.40;;;21.90;60.70;;;21.93;44.56;95032.53;5039255;28;20211;-42
2023/06/12 06:56:44;;;;;;;0.40;0.40;;;21.90;60.70;;;21.94;43.94;95028.00;5037759;28;20534;-43
2023/06/12 07:00:05;;;;;;;0.35;0.35;;;21.90;60.60;;;21.97;44.13;95041.66;5033525;28;20198;-45
2023/06/12 07:02:45;;;;;;;0.50;0.50;;;21.90;60.60;;;22.02;44.08;95040.84;4988610;28;20680;-41
2023/06/12 07:05:32;;;;;;;0.40;0.40;;;21.90;60.60;;;22.02;44.24;95040.84;5001671;28;20296;-42
2023/06/12 07:08:25;;;;;;;0.40;0.40;;;21.90;60.70;;;22.05;44.13;95037.66;5001930;28;20202;-43
2023/06/12 07:11:38;;;;;;;0.30;0.30;;;21.90;61.50;;;22.09;44.18;95040.63;5033856;28;20186;-42
2023/06/12 07:14:12;;;;;;;0.35;0.35;;;21.90;60.60;;;22.10;44.08;95040.34;5017702;28;20622;-42
2023/06/12 07:16:39;;;;;;;0.40;0.40;;;21.90;60.50;;;22.12;44.11;95045.41;5026471;28;20199;-40
2023/06/12 07:19:07;;;;;;;0.40;0.40;;;21.90;60.60;;;22.14;44.08;95045.97;4952806;28;20217;-41
2023/06/12 07:21:34;;;;;;;0.35;0.35;;;21.90;61.50;;;22.17;44.06;95040.91;4952351;28;20560;-40
2023/06/12 07:24:01;;;;;;;0.40;0.40;;;22.00;60.70;;;22.18;44.17;95047.03;4946911;28;20676;-41
2023/06/12 07:26:29;;;;;;;0.30;0.30;;;22.00;60.70;;;22.19;43.91;95044.13;4955692;28;20210;-42
2023/06/12 07:29:03;;;;;;;0.40;0.40;;;22.00;60.60;;;22.23;43.94;95053.22;4955912;28;20213;-42
2023/06/12 07:31:31;;;;;;;0.40;0.40;;;22.00;60.70;;;22.26;43.85;95043.09;4955662;28;20543;-45
2023/06/12 07:34:00;;;;;;;0.43;0.43;;;22.00;60.60;;;22.27;43.94;95040.16;4955383;28;20640;-39
2023/06/12 07:36:31;;;;;;;0.40;0.40;;;22.00;60.60;;;22.29;43.80;95043.38;4955798;28;20205;-41
2023/06/12 07:38:58;;;;;;;0.40;0.40;;;22.10;60.60;;;22.30;43.62;95044.97;4955286;28;20258;-39
2023/06/12 07:41:26;;;;;;;0.40;0.40;;;22.10;60.50;;;22.32;43.56;95044.69;4971856;28;20347;-39
2023/06/12 07:43:53;;;;;;;0.40;0.40;;;22.10;60.30;;;22.34;43.64;95046.03;4955399;28;20289;-39
2023/06/12 07:46:20;;;;;;;0.40;0.40;;;22.10;60.30;;;22.36;43.77;95048.44;4955461;28;20215;-39
2023/06/12 07:48:49;;;;;;;0.40;0.40;;;22.10;60.20;;;22.38;43.52;95041.00;4971901;28;20241;-41
2023/06/12 07:51:16;;;;;;;0.40;0.40;;;22.10;60.20;;;22.38;43.63;95049.81;4939593;28;20206;-41
2023/06/12 07:53:43;;;;;;;0.40;0.40;;;22.20;60.10;;;22.42;43.52;95050.09;4955345;28;20586;-41
2023/06/12 07:56:17;;;;;;;0.30;0.30;;;22.20;60.10;;;22.43;43.50;95050.91;4955352;28;20223;-41
2023/06/12 07:58:47;;;;;;;0.40;0.40;;;22.20;60.10;;;22.44;43.36;95049.84;4955460;28;20206;-40
2023/06/12 08:01:15;;;;;;;0.40;0.40;;;22.20;59.90;;;22.45;43.35;95057.59;4941130;28;20213;-39
2023/06/12 08:03:43;;;;;;;0.40;0.40;;;22.20;59.70;;;22.46;42.95;95048.53;5011196;28;20233;-39
2023/06/12 08:06:13;;;;;;;0.40;0.40;;;22.30;59.80;;;22.47;42.95;95060.00;5027661;28;20580;-40
2023/06/12 08:08:47;;;;;;;0.40;0.40;;;22.20;59.70;;;22.49;42.87;95065.91;5027174;28;20210;-42
2023/06/12 08:11:17;;;;;;;0.40;0.40;;;22.30;59.50;;;22.49;42.73;95053.31;5011070;28;20205;-41
2023/06/12 08:13:47;;;;;;;0.30;0.30;;;22.30;59.60;;;22.50;42.97;95049.59;5027346;28;20194;-41
2023/06/12 08:16:16;;;;;;;0.30;0.30;;;22.30;59.40;;;22.52;42.89;95063.50;5010874;28;20224;-40
2023/06/12 08:18:45;;;;;;;0.40;0.40;;;22.30;59.40;;;22.53;42.58;95050.94;5010700;28;20205;-41
2023/06/12 08:21:13;;;;;;;0.40;0.40;;;22.30;59.30;;;22.55;42.44;95054.94;5027251;28;20261;-40
2023/06/12 08:23:40;;;;;;;0.30;0.30;;;22.30;59.30;;;22.58;42.80;95055.50;5011851;28;20244;-41
2023/06/12 08:26:08;;;;;;;0.40;0.40;;;22.40;59.30;;;22.60;42.54;95058.72;5010747;28;20243;-40
2023/06/12 08:28:37;;;;;;;0.40;0.40;;;22.40;59.20;;;22.60;42.57;95050.69;5010603;28;20289;-41
2023/06/12 08:31:08;;;;;;;0.35;0.35;;;22.40;59.20;;;22.62;42.42;95045.84;5010629;28;20592;-44
2023/06/12 08:33:35;;;;;;;0.40;0.40;;;22.30;58.90;;;22.63;42.21;95050.16;5014063;28;20200;-41
2023/06/12 08:36:03;;;;;;;0.40;0.40;;;22.40;59.00;;;22.65;42.12;95056.03;5013960;28;20576;-42
2023/06/12 08:38:30;;;;;;;0.35;0.35;;;22.40;59.30;;;22.66;42.19;95055.75;5030281;28;20301;-43
2023/06/12 08:41:02;;;;;;;0.45;0.45;;;22.40;58.80;;;22.68;41.97;95056.31;5014082;28;20202;-44
2023/06/12 08:43:30;;;;;;;0.32;0.32;;;22.40;58.50;;;22.69;41.93;95049.09;5013785;28;20223;-43
2023/06/12 08:46:07;;;;;;;0.40;0.40;;;22.40;58.60;;;22.70;41.91;95056.03;5030224;28;20193;-42
2023/06/12 08:48:35;;;;;;;0.40;0.40;;;22.40;58.50;;;22.70;42.29;95054.19;5014865;28;20249;-42
2023/06/12 08:51:02;;;;;;;0.30;0.30;;;22.40;58.50;;;22.71;41.96;95055.75;5013793;28;20197;-42
2023/06/12 08:53:30;;;;;;;0.30;0.30;;;22.50;58.50;;;22.71;41.92;95050.41;5015600;28;20527;-43
2023/06/12 08:55:57;;;;;;;0.40;0.40;;;22.50;58.40;;;22.74;41.73;95054.47;5029970;28;20193;-41
2023/06/12 08:58:25;;;;;;;0.30;0.30;;;22.50;58.20;;;22.74;41.41;95051.78;5013660;28;20214;-44
2023/06/12 09:00:52;;;;;;;0.40;0.40;;;22.50;58.20;;;22.75;41.41;95053.38;5030026;28;20699;-41
2023/06/12 09:03:22;;;;;;;0.35;0.35;;;22.50;58.10;;;22.76;41.36;95049.63;5014593;28;20193;-42
2023/06/12 09:05:52;;;;;;;0.40;0.40;;;22.50;57.90;;;22.77;41.60;95055.81;5014500;28;20200;-41
2023/06/12 09:08:20;;;;;;;0.40;0.40;;;22.50;59.10;;;22.78;41.52;95047.50;5014688;28;20185;-43
2023/06/12 09:10:49;;;;;;;0.40;0.40;;;22.50;58.00;;;22.79;41.36;95054.47;5015225;28;20222;-44
2023/06/12 09:13:16;;;;;;;0.30;0.30;;;22.50;57.90;;;22.81;41.44;95055.00;5014306;28;20814;-42
2023/06/12 09:15:52;;;;;;;0.30;0.30;;;22.50;57.80;;;22.81;41.32;95054.19;5029900;28;20307;-42
2023/06/12 09:18:19;;;;;;;0.30;0.30;;;22.50;57.60;;;22.82;41.07;95055.81;5014277;28;20238;-41
2023/06/12 09:20:49;;;;;;;0.30;0.30;;;22.50;58.80;;;22.85;41.28;95049.91;5013999;28;20194;-42
2023/06/12 09:23:16;;;;;;;0.45;0.45;;;22.50;57.50;;;22.82;41.04;95042.44;5014134;28;20237;-41
2023/06/12 09:25:44;;;;;;;0.30;0.30;;;22.60;57.70;;;22.85;41.06;95039.19;5014153;28;20200;-41
2023/06/12 09:28:36;;;;;;;0.40;0.40;;;22.60;57.60;;;22.85;40.76;95048.03;5014100;28;20619;-41
2023/06/12 09:31:04;;;;;;;0.40;0.40;;;22.60;57.40;;;22.86;40.94;95055.00;5014633;28;20214;-41
2023/06/12 09:33:32;;;;;;;0.32;0.32;;;22.60;58.00;;;22.89;41.28;95050.16;5014111;28;20539;-41
2023/06/12 09:36:00;;;;;;;0.50;0.50;;;22.60;57.30;;;22.89;41.07;95056.34;5014205;28;20201;-41
2023/06/12 09:38:33;;;;;;;0.38;0.38;;;22.60;57.30;;;22.92;40.85;95063.03;5013972;28;20221;-41
2023/06/12 09:41:03;;;;;;;0.40;0.40;;;22.60;57.10;;;22.93;40.61;95062.75;5013805;28;20311;-41
2023/06/12 09:43:31;;;;;;;0.30;0.30;;;22.70;57.20;;;22.93;40.32;95057.41;5013427;28;20530;-41
2023/06/12 09:46:03;;;;;;;0.45;0.45;;;22.70;57.20;;;22.95;40.51;95062.47;5014234;28;20197;-41
2023/06/12 09:48:37;;;;;;;0.50;0.50;;;22.70;57.00;;;22.97;40.29;95066.53;5029421;28;20195;-41
2023/06/12 09:51:09;;;;;;;0.43;0.43;;;22.70;56.70;;;22.99;40.24;95066.25;5013699;28;20177;-41
2023/06/12 09:53:39;;;;;;;0.30;0.30;;;22.70;56.60;;;23.00;40.25;95063.28;5029429;28;20185;-41
2023/06/12 09:56:09;;;;;;;0.30;0.30;;;22.70;56.70;;;23.02;40.11;95057.66;5013822;28;20711;-41
2023/06/12 09:58:38;;;;;;;0.35;0.35;;;22.70;57.90;;;23.02;40.11;95055.00;5013658;28;20683;-41
2023/06/12 10:01:07;;;;;;;0.30;0.30;;;22.70;56.80;;;23.03;40.21;95067.31;5014453;28;20197;-41
2023/06/12 10:03:42;;;;;;;0.30;0.30;;;22.70;56.60;;;23.03;40.23;95065.44;5013711;28;20209;-41
2023/06/12 10:06:13;;;;;;;0.30;0.30;;;22.70;56.20;;;23.05;40.02;95061.72;5012888;28;20200;-41
2023/06/12 10:08:41;;;;;;;0.40;0.40;;;22.80;56.50;;;23.06;40.04;95069.47;5028917;28;20212;-44
2023/06/12 10:11:09;;;;;;;0.35;0.35;;;22.70;56.40;;;23.07;39.81;95071.06;5012495;28;20219;-41
2023/06/12 10:13:37;;;;;;;0.30;0.30;;;22.70;56.30;;;23.07;39.50;95064.91;5014224;28;20663;-41
2023/06/12 10:16:05;;;;;;;0.40;0.40;;;22.70;56.10;;;23.10;39.93;95059.03;5013641;28;20224;-41
2023/06/12 10:18:33;;;;;;;0.35;0.35;;;22.70;56.20;;;23.10;39.60;95056.34;5012740;28;20197;-41
2023/06/12 10:21:02;;;;;;;0.30;0.30;;;22.80;56.30;;;23.12;39.88;95056.88;5013190;28;20189;-42
2023/06/12 10:23:31;;;;;;;0.30;0.30;;;22.80;56.20;;;23.13;39.69;95061.16;5012196;28;20260;-45
2023/06/12 10:26:02;;;;;;;0.30;0.30;;;22.80;56.20;;;23.12;39.46;95052.34;5013256;28;20177;-41
2023/06/12 10:28:30;;;;;;;0.30;0.30;;;22.80;56.10;;;23.15;39.59;95056.34;5012872;28;20192;-42
2023/06/12 10:31:17;;;;;;;0.30;0.30;;;22.80;56.10;;;23.13;39.49;95048.59;5013028;28;20225;-41
2023/06/12 10:34:10;;;;;;;0.40;0.40;;;22.80;56.00;;;23.14;39.80;95042.19;5013411;28;20185;-41
2023/06/12 10:36:43;;;;;;;0.30;0.30;;;22.80;55.90;;;23.16;39.60;95050.75;5013071;28;20189;-42
2023/06/12 10:39:25;;;;;;;0.32;0.32;;;22.90;56.10;;;23.19;39.51;95052.09;5012471;28;20658;-41